Wading River, New York
Current Conditions -  °F | °C
As of 6:56 AM on Sunday 23 Nov 2014 (Local Time) from KHWV Reporting Station
Broken Clouds Broken Clouds  
Wind Chill: 40°   Ceiling: 12000
Heat Index: 45°   Visibility: 10mi
Dew Point: 26°   Wind: 9mph
Humidity: 48%   Direction: 230°SW
Pressure: 30.2"   Gusts: NA
Location:  40.95°N, 72.84°W
Report Text: KHWV 231156Z AUTO 23008KT 10SM SCT090 BKN120 07/M03 A3020 RMK AO2 SLP228 T00721033 10072 20067 53008 TSNO
Loading
Personal Weather Stations






























Interactive Weather Map New forecast layout! Learn more

10-Day Weather Forecast

Advertisements
Track Severe Weather on mobile